Date,TemperatureHighF,TemperatureAvgF,TemperatureLowF,DewpointHighF,DewpointAvgF,DewpointLowF,HumidityHigh,HumidityAvg,HumidityLow,PressureMaxIn,PressureMinIn,WindSpeedMaxMPH,WindSpeedAvgMPH,GustSpeedMaxMPH,PrecipitationSumIn
2013-9-1,85.7,74.0,66.1,72.0,69.0,65.0,99,85,63,29.73,29.63,6,1,16,0.08
2013-9-2,85.2,71.9,65.1,75.0,68.8,62.0,100,90,68,29.67,29.53,9,2,16,0.89
2013-9-3,66.8,63.7,60.4,62.0,58.6,56.0,94,83,72,29.82,29.66,14,5,18,0.00
2013-9-4,76.5,66.4,53.3,61.0,57.5,52.0,97,75,52,29.89,29.82,11,5,15,0.00
2013-9-5,68.2,59.8,47.2,62.0,51.0,44.0,93,74,55,30.10,29.83,12,5,19,0.00
2013-9-6,71.7,55.1,43.2,52.0,46.2,42.0,96,75,40,30.19,30.02,6,1,10,0.00
2013-9-7,68.4,61.4,52.6,59.0,53.1,46.0,84,74,59,30.02,29.77,9,1,11,0.00
2013-9-8,63.7,59.6,48.0,63.0,52.0,44.0,99,77,53,30.01,29.73,18,4,23,0.09
2013-9-9,78.4,59.8,45.2,58.0,50.5,43.0,91,73,49,30.09,29.92,5,1,13,0.00
2013-9-10,91.0,76.1,64.5,77.0,69.2,58.0,96,79,64,29.93,29.85,9,2,13,0.17
2013-9-11,89.6,79.5,69.4,76.0,72.4,68.0,96,80,58,29.94,29.81,11,2,18,0.18
2013-9-12,74.9,68.9,63.1,71.0,66.5,61.0,99,92,82,29.80,29.61,9,2,13,0.34
2013-9-13,62.9,55.4,49.0,61.0,54.2,48.0,98,96,91,29.87,29.60,15,7,20,0.15
2013-9-14,58.2,50.4,44.6,49.0,46.4,44.0,97,87,65,30.04,29.86,10,4,14,0.00
2013-9-15,67.1,54.8,43.7,55.0,48.8,42.0,97,81,57,30.09,29.96,15,1,16,0.00
2013-9-16,57.0,51.4,41.5,54.0,49.0,40.0,99,92,79,30.26,29.97,13,3,19,0.04
2013-9-17,68.7,49.3,36.4,49.0,42.4,35.0,98,79,49,30.39,30.22,8,2,10,0.00
2013-9-18,77.8,58.9,46.0,54.0,46.7,42.0,92,67,39,30.23,30.03,5,1,12,0.00
2013-9-19,80.2,63.1,50.1,58.0,50.4,45.0,85,65,41,30.04,29.93,8,1,10,0.00
2013-9-20,83.2,67.4,57.1,64.0,58.6,51.0,93,75,51,29.93,29.74,11,1,13,0.00
2013-9-21,68.1,62.1,56.8,62.0,58.9,56.0,99,89,77,29.74,29.51,11,2,16,1.16
2013-9-22,56.0,51.7,48.8,55.0,46.9,42.0,96,84,71,29.90,29.60,13,6,19,0.02
2013-9-23,55.4,49.4,45.2,46.0,43.5,41.0,92,80,64,30.03,29.90,13,4,14,0.00
2013-9-24,61.5,49.5,39.5,49.0,44.2,39.0,99,83,56,30.03,29.91,11,3,14,0.00
2013-9-25,67.6,52.6,40.9,55.0,47.1,40.0,99,83,58,29.92,29.84,8,2,12,0.00
2013-9-26,68.3,54.5,43.6,55.0,49.8,43.0,100,85,62,30.03,29.90,9,2,14,0.01
2013-9-27,68.4,55.3,45.0,57.0,51.3,45.0,100,87,61,30.17,30.03,8,2,10,0.01
2013-9-28,75.4,59.1,47.6,58.0,51.6,46.0,96,78,50,30.22,30.10,9,1,10,0.00
2013-9-29,76.6,60.9,50.6,55.0,50.6,47.0,90,71,44,30.10,29.93,10,1,19,0.00
2013-9-30,81.1,63.1,53.2,59.0,53.3,49.0,87,72,44,29.94,29.84,5,1,7,0.00